Time;durP1;ratioP1;P1;durP2;ratioP2;P2;SDS_P1;SDS_P2;PMS_P1;PMS_P2;Temp;Humidity;BMP_temperature;BMP_pressure;BME280_temperature;BME280_humidity;BME280_pressure;Samples;Min_cycle;Max_cycle;Signal;HPM_P1;HPM_P2
2022/06/27 00:02:09;;;;;;;3.92;3.15;;;18.00;98.10;;;;;;5055684;28;20071;-61
2022/06/27 00:04:34;;;;;;;4.10;3.17;;;18.00;98.20;;;;;;5073330;28;20531;-61
2022/06/27 00:07:00;;;;;;;4.40;2.92;;;18.00;98.20;;;;;;5071730;28;20032;-61
2022/06/27 00:09:26;;;;;;;4.38;3.38;;;17.90;98.40;;;;;;5056005;28;20543;-61
2022/06/27 00:11:51;;;;;;;4.40;3.03;;;17.90;98.60;;;;;;5055534;28;20100;-61
2022/06/27 00:14:17;;;;;;;4.53;2.88;;;17.90;99.10;;;;;;5055539;28;20025;-61
2022/06/27 00:16:42;;;;;;;3.22;2.55;;;17.90;99.00;;;;;;5053945;28;20403;-61
2022/06/27 00:19:08;;;;;;;4.30;3.20;;;17.90;99.10;;;;;;5073640;28;20017;-61
2022/06/27 00:21:33;;;;;;;2.80;2.58;;;17.80;99.20;;;;;;5074478;28;20032;-61
2022/06/27 00:23:59;;;;;;;4.15;3.28;;;17.90;99.30;;;;;;5074398;28;20020;-61
2022/06/27 00:26:24;;;;;;;3.22;2.92;;;17.90;99.30;;;;;;5069272;28;20469;-61
2022/06/27 00:28:50;;;;;;;3.97;3.58;;;17.90;99.30;;;;;;5054827;28;20029;-61
2022/06/27 00:31:15;;;;;;;4.38;2.72;;;17.90;99.30;;;;;;5068100;28;20507;-61
2022/06/27 00:33:41;;;;;;;6.30;3.45;;;17.90;99.30;;;;;;5054682;28;20029;-61
2022/06/27 00:36:07;;;;;;;5.13;3.22;;;17.90;99.30;;;;;;5070060;28;20429;-62
2022/06/27 00:38:32;;;;;;;6.32;2.85;;;17.90;99.30;;;;;;5069464;28;20029;-61
2022/06/27 00:40:58;;;;;;;4.30;3.35;;;17.90;99.40;;;;;;5055647;28;20029;-62
2022/06/27 00:43:23;;;;;;;3.33;2.65;;;17.90;99.40;;;;;;5068104;28;20017;-61
2022/06/27 00:45:49;;;;;;;3.75;2.92;;;17.90;99.30;;;;;;5054805;28;20025;-62
2022/06/27 00:48:14;;;;;;;6.13;3.20;;;17.90;99.40;;;;;;5066697;28;20028;-62
2022/06/27 00:50:40;;;;;;;3.47;2.92;;;17.90;99.50;;;;;;5073556;28;20036;-62
2022/06/27 00:53:08;;;;;;;3.92;2.80;;;17.90;99.50;;;;;;5073951;28;20032;-61
2022/06/27 00:55:33;;;;;;;3.85;3.22;;;17.90;99.70;;;;;;5068301;28;20056;-62
2022/06/27 00:58:00;;;;;;;3.88;2.85;;;17.90;99.80;;;;;;5067150;28;20072;-61
2022/06/27 01:00:26;;;;;;;2.95;2.65;;;17.90;99.80;;;;;;5060623;28;20036;-61
2022/06/27 01:02:52;;;;;;;3.50;3.13;;;17.90;99.90;;;;;;5073684;28;20066;-62
2022/06/27 01:05:17;;;;;;;4.07;3.30;;;17.90;99.90;;;;;;5073925;28;20027;-61
2022/06/27 01:07:43;;;;;;;3.80;3.00;;;17.90;99.90;;;;;;5065319;28;20063;-62
2022/06/27 01:10:09;;;;;;;4.07;3.40;;;17.80;99.90;;;;;;5069792;28;20561;-61
2022/06/27 01:12:35;;;;;;;3.63;3.10;;;17.90;99.90;;;;;;5066036;28;20058;-62
2022/06/27 01:15:01;;;;;;;3.78;2.88;;;17.80;99.90;;;;;;5070302;28;20020;-61
2022/06/27 01:17:27;;;;;;;4.07;3.30;;;17.90;99.90;;;;;;5068390;28;20071;-62
2022/06/27 01:19:53;;;;;;;4.10;3.67;;;17.80;99.90;;;;;;5070270;28;20468;-61
2022/06/27 01:22:19;;;;;;;4.50;3.20;;;17.80;99.90;;;;;;5069748;28;20028;-62
2022/06/27 01:24:44;;;;;;;4.93;3.20;;;17.80;99.90;;;;;;5055435;28;20469;-62
2022/06/27 01:27:10;;;;;;;3.97;2.88;;;17.80;99.90;;;;;;5073464;28;20099;-62
2022/06/27 01:29:37;;;;;;;3.95;3.30;;;17.80;99.90;;;;;;5054525;28;20032;-62
2022/06/27 01:32:03;;;;;;;4.53;3.80;;;17.80;99.90;;;;;;5053611;28;20048;-62
2022/06/27 01:34:29;;;;;;;4.43;3.33;;;17.80;99.90;;;;;;5059206;28;20025;-61
2022/06/27 01:36:55;;;;;;;4.70;3.00;;;17.80;99.90;;;;;;5060831;28;20032;-61
2022/06/27 01:39:25;;;;;;;4.13;3.28;;;17.80;99.90;;;;;;5059061;28;20028;-62
2022/06/27 01:41:59;;;;;;;3.30;3.00;;;17.80;99.90;;;;;;5060183;28;20025;-61
2022/06/27 01:44:27;;;;;;;3.17;2.88;;;17.80;99.90;;;;;;5053231;28;20021;-62
2022/06/27 01:47:00;;;;;;;3.53;3.00;;;17.80;99.90;;;;;;5053469;28;20052;-62
2022/06/27 01:49:28;;;;;;;5.72;3.13;;;17.70;99.90;;;;;;5053640;28;20524;-62
2022/06/27 01:51:55;;;;;;;4.22;3.25;;;17.70;99.90;;;;;;5053187;28;20045;-62
2022/06/27 01:54:22;;;;;;;2.90;2.60;;;17.80;99.90;;;;;;5063121;28;20103;-61
2022/06/27 01:56:51;;;;;;;4.60;3.45;;;17.70;99.90;;;;;;5056199;28;20067;-61
2022/06/27 01:59:23;;;;;;;4.07;3.20;;;17.70;99.90;;;;;;5068529;28;20507;-61
2022/06/27 02:01:48;;;;;;;4.30;3.53;;;17.70;99.90;;;;;;5066221;28;20029;-61
2022/06/27 02:04:15;;;;;;;4.47;4.07;;;17.70;99.90;;;;;;5065981;28;20434;-61
2022/06/27 02:06:43;;;;;;;4.78;3.67;;;17.70;99.90;;;;;;5083377;28;20102;-61
2022/06/27 02:09:10;;;;;;;3.97;3.55;;;17.70;99.90;;;;;;5068719;28;20063;-61
2022/06/27 02:11:37;;;;;;;7.55;3.83;;;17.70;99.90;;;;;;5068670;28;20067;-62
2022/06/27 02:14:03;;;;;;;5.53;4.00;;;17.70;99.90;;;;;;5064850;28;20017;-62
2022/06/27 02:16:29;;;;;;;3.67;3.22;;;17.70;99.90;;;;;;5068790;28;20044;-61
2022/06/27 02:18:54;;;;;;;5.97;3.22;;;17.70;99.90;;;;;;5068534;28;20449;-61
2022/06/27 02:21:24;;;;;;;5.55;3.55;;;17.70;99.90;;;;;;5068989;28;20412;-61
2022/06/27 02:23:50;;;;;;;4.10;3.70;;;17.70;99.90;;;;;;5069291;28;20033;-61
2022/06/27 02:26:16;;;;;;;5.00;3.72;;;17.60;99.90;;;;;;5058342;28;20424;-62
2022/06/27 02:28:43;;;;;;;4.78;3.40;;;17.60;99.90;;;;;;5067342;28;20067;-61
2022/06/27 02:31:10;;;;;;;4.25;3.53;;;17.60;99.90;;;;;;5071709;28;20025;-61
2022/06/27 02:33:45;;;;;;;4.07;3.58;;;17.60;99.90;;;;;;5069484;28;20017;-61
2022/06/27 02:36:14;;;;;;;5.47;3.80;;;17.60;99.90;;;;;;5071002;28;20012;-61
2022/06/27 02:38:41;;;;;;;4.15;3.75;;;17.60;99.90;;;;;;5070751;28;20017;-61
2022/06/27 02:41:10;;;;;;;5.45;3.83;;;17.60;99.90;;;;;;5059145;28;20028;-61
2022/06/27 02:43:38;;;;;;;5.93;3.42;;;17.60;99.90;;;;;;5070926;28;20029;-61
2022/06/27 02:46:04;;;;;;;4.50;3.40;;;17.60;99.90;;;;;;5071336;28;20129;-61
2022/06/27 02:48:32;;;;;;;4.30;3.72;;;17.60;99.90;;;;;;5069740;28;20457;-61
2022/06/27 02:51:05;;;;;;;5.10;3.97;;;17.60;99.90;;;;;;5069935;28;20029;-61
2022/06/27 02:53:42;;;;;;;5.10;3.88;;;17.60;99.90;;;;;;5068166;28;20045;-61
2022/06/27 02:56:10;;;;;;;5.45;3.78;;;17.60;99.90;;;;;;5055099;28;20491;-62
2022/06/27 02:58:44;;;;;;;5.00;3.50;;;17.60;99.90;;;;;;5065448;28;20040;-61
2022/06/27 03:01:12;;;;;;;15.90;4.30;;;17.60;99.90;;;;;;5066935;28;20031;-61
2022/06/27 03:03:41;;;;;;;3.65;3.30;;;17.60;99.90;;;;;;5066992;28;20056;-61
2022/06/27 03:06:07;;;;;;;4.53;3.83;;;17.50;99.90;;;;;;5071955;28;20036;-61
2022/06/27 03:08:44;;;;;;;5.97;4.07;;;17.50;99.90;;;;;;5071249;28;20028;-62
2022/06/27 03:11:15;;;;;;;8.38;4.20;;;17.50;99.90;;;;;;5072121;28;20107;-61
2022/06/27 03:13:42;;;;;;;4.78;4.00;;;17.50;99.90;;;;;;5071653;28;20397;-61
2022/06/27 03:16:09;;;;;;;4.60;4.03;;;17.40;99.90;;;;;;5071678;28;20427;-61
2022/06/27 03:18:34;;;;;;;4.47;4.00;;;17.50;99.90;;;;;;5073492;28;20017;-62
2022/06/27 03:21:00;;;;;;;4.38;3.45;;;17.50;99.90;;;;;;5074194;28;20035;-61
2022/06/27 03:23:27;;;;;;;5.57;3.88;;;17.50;99.90;;;;;;5068142;28;20137;-62
2022/06/27 03:25:53;;;;;;;6.03;3.65;;;17.50;99.90;;;;;;5069673;28;20472;-61
2022/06/27 03:28:19;;;;;;;4.30;3.15;;;17.40;99.90;;;;;;5074479;28;20020;-62
2022/06/27 03:30:45;;;;;;;4.22;3.78;;;17.50;99.90;;;;;;5075004;28;20029;-61
2022/06/27 03:33:11;;;;;;;3.92;3.42;;;17.50;99.90;;;;;;5075380;28;20020;-61
2022/06/27 03:35:37;;;;;;;3.80;3.50;;;17.40;99.90;;;;;;5073637;28;20036;-61
2022/06/27 03:38:02;;;;;;;4.57;3.50;;;17.40;99.90;;;;;;5075089;28;20052;-61
2022/06/27 03:40:28;;;;;;;5.15;3.35;;;17.40;99.90;;;;;;5066266;28;20017;-61
2022/06/27 03:42:54;;;;;;;4.70;3.33;;;17.40;99.90;;;;;;5070861;28;20020;-62
2022/06/27 03:45:19;;;;;;;3.78;3.45;;;17.30;99.90;;;;;;5065257;28;20110;-62
2022/06/27 03:47:48;;;;;;;4.80;3.17;;;17.40;99.90;;;;;;5059511;28;20488;-61
2022/06/27 03:50:14;;;;;;;4.97;3.92;;;17.30;99.90;;;;;;5056503;28;20036;-61
2022/06/27 03:52:41;;;;;;;5.20;3.35;;;17.30;99.90;;;;;;5059543;28;20025;-61
2022/06/27 03:55:08;;;;;;;4.28;3.63;;;17.30;99.90;;;;;;5064722;28;20024;-62
2022/06/27 03:57:36;;;;;;;3.78;3.30;;;17.30;99.90;;;;;;5055621;28;20045;-61
2022/06/27 04:00:02;;;;;;;4.53;3.10;;;17.20;99.90;;;;;;5071257;28;20028;-61
2022/06/27 04:02:28;;;;;;;4.05;3.20;;;17.20;99.90;;;;;;5072631;28;20486;-61
2022/06/27 04:04:53;;;;;;;4.78;3.60;;;17.20;99.90;;;;;;5064273;28;20036;-61
2022/06/27 04:07:19;;;;;;;5.93;3.95;;;17.20;99.90;;;;;;5062994;28;20032;-61
2022/06/27 04:09:44;;;;;;;6.70;3.40;;;17.20;99.90;;;;;;5055605;28;20071;-61
2022/06/27 04:12:11;;;;;;;4.57;3.65;;;17.20;99.90;;;;;;5068956;28;20017;-61
2022/06/27 04:14:37;;;;;;;4.13;3.72;;;17.20;99.90;;;;;;5071222;28;20028;-61
2022/06/27 04:17:03;;;;;;;3.75;3.35;;;17.20;99.90;;;;;;5060535;28;20023;-61
2022/06/27 04:19:28;;;;;;;3.83;3.53;;;17.10;99.90;;;;;;5063578;28;20461;-61
2022/06/27 04:21:54;;;;;;;5.63;4.40;;;17.10;99.90;;;;;;5072394;28;20074;-61
2022/06/27 04:24:20;;;;;;;4.70;3.88;;;17.10;99.90;;;;;;5068017;28;20504;-61
2022/06/27 04:26:46;;;;;;;3.78;3.10;;;17.00;99.90;;;;;;5066539;28;20021;-61
2022/06/27 04:29:12;;;;;;;3.95;3.10;;;17.00;99.90;;;;;;5067672;28;20024;-61
2022/06/27 04:31:37;;;;;;;4.25;3.10;;;17.00;99.90;;;;;;5067052;28;20032;-61
2022/06/27 04:34:04;;;;;;;3.53;3.22;;;17.00;99.90;;;;;;5070662;28;20058;-61
2022/06/27 04:36:30;;;;;;;5.50;3.72;;;17.10;99.90;;;;;;5078478;28;20384;-61
2022/06/27 04:38:56;;;;;;;3.30;2.83;;;17.10;99.90;;;;;;5064638;28;20052;-61
2022/06/27 04:41:22;;;;;;;3.33;3.03;;;17.20;99.90;;;;;;5073525;28;20051;-61
2022/06/27 04:43:47;;;;;;;4.70;3.05;;;17.20;99.90;;;;;;5074294;28;20470;-61
2022/06/27 04:46:13;;;;;;;4.75;3.30;;;17.30;99.90;;;;;;5070198;28;20025;-61
2022/06/27 04:48:39;;;;;;;6.65;3.35;;;17.30;99.90;;;;;;5054423;28;20493;-61
2022/06/27 04:51:06;;;;;;;5.82;3.60;;;17.30;99.90;;;;;;5054089;28;20063;-61
2022/06/27 04:53:32;;;;;;;5.00;3.42;;;17.30;99.90;;;;;;5065195;28;20460;-61
2022/06/27 04:55:58;;;;;;;5.15;3.53;;;17.40;99.90;;;;;;5056006;28;20505;-61
2022/06/27 04:58:24;;;;;;;4.82;3.42;;;17.40;99.90;;;;;;5053983;28;20080;-61
2022/06/27 05:00:49;;;;;;;7.72;3.80;;;17.50;99.90;;;;;;5058617;28;20029;-61
2022/06/27 05:03:15;;;;;;;4.13;3.25;;;17.60;99.90;;;;;;5073845;28;20046;-61
2022/06/27 05:05:41;;;;;;;4.68;4.00;;;17.60;99.90;;;;;;5069047;28;20582;-61
2022/06/27 05:08:07;;;;;;;5.60;4.07;;;17.60;99.90;;;;;;5059759;28;20041;-61
2022/06/27 05:10:32;;;;;;;6.50;4.47;;;17.70;99.90;;;;;;5071183;28;20056;-61
2022/06/27 05:12:59;;;;;;;5.47;4.30;;;17.70;99.90;;;;;;5078438;28;20017;-61
2022/06/27 05:15:25;;;;;;;7.13;4.43;;;17.70;99.90;;;;;;5069581;28;20117;-61
2022/06/27 05:17:50;;;;;;;5.05;4.55;;;17.70;99.90;;;;;;5069273;28;20547;-61
2022/06/27 05:20:17;;;;;;;5.90;4.03;;;17.70;99.90;;;;;;5071315;28;20097;-61
2022/06/27 05:22:42;;;;;;;5.05;4.63;;;17.70;99.90;;;;;;5071986;28;20031;-61
2022/06/27 05:25:08;;;;;;;5.20;4.30;;;17.70;99.90;;;;;;5069378;28;20028;-61
2022/06/27 05:27:35;;;;;;;5.93;4.60;;;17.70;99.90;;;;;;5069807;28;20042;-61
2022/06/27 05:30:04;;;;;;;6.35;4.15;;;17.70;99.90;;;;;;5068822;28;20021;-60
2022/06/27 05:32:29;;;;;;;6.95;4.15;;;17.70;99.90;;;;;;5070247;28;20056;-61
2022/06/27 05:34:55;;;;;;;4.57;3.95;;;17.80;99.90;;;;;;5068249;28;20551;-61
2022/06/27 05:37:21;;;;;;;5.97;3.95;;;17.80;99.90;;;;;;5067134;28;20016;-61
2022/06/27 05:39:46;;;;;;;6.07;4.32;;;17.80;99.90;;;;;;5081988;28;20081;-61
2022/06/27 05:42:12;;;;;;;4.53;4.13;;;17.80;99.90;;;;;;5067461;28;20028;-61
2022/06/27 05:44:38;;;;;;;5.30;3.97;;;17.80;99.90;;;;;;5064884;28;20028;-61
2022/06/27 05:47:04;;;;;;;4.68;4.05;;;17.80;99.90;;;;;;5081222;28;20489;-61
2022/06/27 05:49:31;;;;;;;4.70;3.88;;;17.80;99.90;;;;;;5067750;28;20021;-61
2022/06/27 05:51:57;;;;;;;5.45;4.40;;;17.90;99.90;;;;;;5067767;28;20042;-61
2022/06/27 05:54:24;;;;;;;5.50;4.15;;;17.90;99.90;;;;;;5064443;28;20016;-61
2022/06/27 05:56:50;;;;;;;5.15;3.80;;;17.90;99.90;;;;;;5067712;28;20463;-61
2022/06/27 05:59:17;;;;;;;5.95;4.60;;;18.00;99.90;;;;;;5066678;28;20060;-61
2022/06/27 06:01:45;;;;;;;5.53;4.45;;;18.00;99.90;;;;;;5064962;28;20040;-61
2022/06/27 06:04:10;;;;;;;4.75;4.05;;;18.00;99.90;;;;;;5061526;28;20025;-61
2022/06/27 06:06:36;;;;;;;5.05;4.25;;;18.10;99.90;;;;;;5066119;28;20089;-61
2022/06/27 06:09:03;;;;;;;5.53;4.97;;;18.10;99.90;;;;;;5065108;28;20104;-61
2022/06/27 06:11:30;;;;;;;6.18;4.90;;;18.10;99.90;;;;;;5058823;28;20012;-61
2022/06/27 06:13:56;;;;;;;5.88;5.00;;;18.10;99.90;;;;;;5063847;28;20063;-61
2022/06/27 06:16:22;;;;;;;6.10;4.90;;;18.10;99.90;;;;;;5068228;28;20017;-61
2022/06/27 06:18:52;;;;;;;8.88;5.45;;;18.10;99.90;;;;;;5066724;28;20023;-61
2022/06/27 06:21:19;;;;;;;6.80;4.95;;;18.10;99.90;;;;;;5066118;28;20017;-61
2022/06/27 06:23:44;;;;;;;7.22;5.75;;;18.20;99.90;;;;;;5048586;28;20048;-61
2022/06/27 06:26:10;;;;;;;6.47;5.50;;;18.10;99.90;;;;;;5062999;28;20492;-61
2022/06/27 06:28:36;;;;;;;6.15;5.07;;;18.10;99.90;;;;;;5067535;28;20029;-61
2022/06/27 06:31:03;;;;;;;5.13;4.63;;;18.10;99.90;;;;;;5062719;28;20028;-61
2022/06/27 06:34:24;;;;;;;5.03;4.53;;;18.20;99.90;;;;;;5063273;28;20016;-61
2022/06/27 06:36:49;;;;;;;5.18;4.15;;;18.20;99.90;;;;;;5064873;28;20016;-61
2022/06/27 06:39:15;;;;;;;6.32;4.40;;;18.20;99.90;;;;;;5067361;28;20032;-61
2022/06/27 06:41:41;;;;;;;5.10;4.60;;;18.30;99.90;;;;;;5064417;28;20025;-61
2022/06/27 06:44:07;;;;;;;4.43;4.03;;;18.20;99.90;;;;;;5063576;28;20025;-61
2022/06/27 06:46:34;;;;;;;5.70;4.70;;;18.30;99.90;;;;;;5063537;28;20036;-61
2022/06/27 06:49:02;;;;;;;5.50;4.90;;;18.40;99.90;;;;;;5063842;28;20036;-61
2022/06/27 06:51:34;;;;;;;6.70;4.53;;;18.40;99.90;;;;;;5059787;28;20052;-61
2022/06/27 06:54:02;;;;;;;5.72;4.32;;;18.40;99.90;;;;;;5063759;28;20027;-61
2022/06/27 06:56:30;;;;;;;5.80;4.50;;;18.40;99.90;;;;;;5059883;28;20418;-61
2022/06/27 06:58:57;;;;;;;6.05;4.70;;;18.50;99.90;;;;;;5066726;28;20036;-61
2022/06/27 07:01:22;;;;;;;6.03;4.45;;;18.50;99.90;;;;;;5065293;28;20024;-61
2022/06/27 07:03:49;;;;;;;5.03;4.47;;;18.60;99.90;;;;;;5068034;28;20092;-61
2022/06/27 07:06:15;;;;;;;5.60;4.72;;;18.60;99.90;;;;;;5064555;28;20017;-61
2022/06/27 07:08:41;;;;;;;5.57;5.00;;;18.70;99.90;;;;;;5068995;28;20358;-61
2022/06/27 07:11:07;;;;;;;5.80;4.45;;;18.70;99.90;;;;;;5064852;28;20066;-61
2022/06/27 07:13:33;;;;;;;5.88;4.78;;;18.70;99.90;;;;;;5064261;28;20016;-61
2022/06/27 07:15:58;;;;;;;7.68;4.97;;;18.80;99.90;;;;;;5059567;28;20028;-61
2022/06/27 07:18:25;;;;;;;5.75;4.75;;;18.80;99.90;;;;;;5069066;28;20057;-61
2022/06/27 07:20:51;;;;;;;4.78;4.28;;;18.90;99.90;;;;;;5068628;28;20083;-61
2022/06/27 07:23:17;;;;;;;5.25;4.75;;;18.90;99.90;;;;;;5061624;28;20500;-62
2022/06/27 07:25:43;;;;;;;5.82;5.20;;;19.00;99.90;;;;;;5073946;28;20032;-61
2022/06/27 07:28:08;;;;;;;6.88;5.43;;;19.10;99.90;;;;;;5075928;28;20071;-61
2022/06/27 07:30:34;;;;;;;6.15;5.40;;;19.10;99.90;;;;;;5063574;28;20056;-61
2022/06/27 07:33:00;;;;;;;6.40;5.80;;;19.10;99.90;;;;;;5064437;28;20025;-61
2022/06/27 07:35:29;;;;;;;6.60;5.97;;;19.20;99.90;;;;;;5072669;28;20031;-61
2022/06/27 07:37:54;;;;;;;7.60;5.97;;;19.20;99.90;;;;;;5066738;28;20016;-61
2022/06/27 07:40:21;;;;;;;7.15;6.40;;;19.30;99.90;;;;;;5062454;28;20137;-61
2022/06/27 07:42:48;;;;;;;8.55;6.05;;;19.30;99.90;;;;;;5058133;28;20044;-61
2022/06/27 07:45:15;;;;;;;6.25;5.60;;;19.40;99.90;;;;;;5053894;28;20029;-61
2022/06/27 07:47:59;;;;;;;8.65;6.80;;;19.50;99.90;;;;;;5072774;28;20078;-61
2022/06/27 07:50:37;;;;;;;8.35;6.65;;;19.60;99.90;;;;;;5060395;28;20109;-62
2022/06/27 07:53:18;;;;;;;6.97;6.03;;;19.70;99.90;;;;;;5063737;28;20017;-61
2022/06/27 07:56:06;;;;;;;8.90;6.93;;;19.80;99.90;;;;;;5061104;28;20017;-61
2022/06/27 07:58:35;;;;;;;7.85;7.05;;;20.00;99.90;;;;;;5058829;28;20167;-61
2022/06/27 08:01:06;;;;;;;10.32;7.55;;;20.00;99.90;;;;;;5057151;28;20025;-61
2022/06/27 08:03:44;;;;;;;9.60;8.55;;;20.10;99.90;;;;;;5074535;28;20040;-61
2022/06/27 08:06:12;;;;;;;8.43;7.35;;;20.20;99.90;;;;;;5063021;28;20028;-61
2022/06/27 08:08:39;;;;;;;7.35;6.65;;;20.30;99.70;;;;;;5079438;28;20025;-61
2022/06/27 08:11:28;;;;;;;8.80;7.22;;;20.40;99.60;;;;;;5072918;28;20480;-61
2022/06/27 08:13:58;;;;;;;9.20;6.97;;;20.40;99.40;;;;;;5067898;28;20142;-62
2022/06/27 08:16:25;;;;;;;9.00;7.60;;;20.40;99.40;;;;;;5062953;28;20103;-62
2022/06/27 08:18:52;;;;;;;6.85;6.07;;;20.40;99.30;;;;;;5060081;28;20023;-61
2022/06/27 08:21:21;;;;;;;7.40;6.32;;;20.40;99.10;;;;;;5062791;28;20108;-62
2022/06/27 08:23:49;;;;;;;6.28;5.47;;;20.50;99.00;;;;;;5054993;28;20092;-61
2022/06/27 08:26:16;;;;;;;6.28;5.60;;;20.50;98.80;;;;;;5071977;28;20021;-61
2022/06/27 08:28:43;;;;;;;5.82;5.25;;;20.60;98.70;;;;;;5073780;28;20503;-61
2022/06/27 08:31:12;;;;;;;7.43;5.78;;;20.80;98.40;;;;;;5073505;28;20037;-62
2022/06/27 08:33:44;;;;;;;6.95;6.05;;;20.80;97.90;;;;;;5062245;28;20033;-61
2022/06/27 08:36:12;;;;;;;6.20;4.38;;;20.90;97.60;;;;;;5066879;28;20380;-62
2022/06/27 08:38:48;;;;;;;7.70;5.85;;;20.90;97.50;;;;;;5067353;28;20152;-61
2022/06/27 08:41:15;;;;;;;7.93;7.10;;;20.90;96.80;;;;;;5073733;28;20541;-61
2022/06/27 08:43:42;;;;;;;10.63;7.20;;;20.80;95.60;;;;;;5074135;28;20047;-61
2022/06/27 08:46:12;;;;;;;7.90;6.60;;;20.60;95.40;;;;;;5073087;28;20055;-61
2022/06/27 08:48:41;;;;;;;9.82;6.35;;;20.50;95.60;;;;;;5073870;28;20040;-61
2022/06/27 08:51:07;;;;;;;8.30;6.00;;;20.50;95.40;;;;;;5072744;28;20107;-61
2022/06/27 08:53:34;;;;;;;5.50;4.35;;;20.50;95.50;;;;;;5073683;28;20063;-61
2022/06/27 08:56:01;;;;;;;8.95;6.13;;;20.50;95.50;;;;;;5068035;28;20017;-61
2022/06/27 08:58:28;;;;;;;6.30;4.60;;;20.50;95.30;;;;;;5070497;28;20036;-61
2022/06/27 09:00:54;;;;;;;7.32;5.18;;;20.50;95.30;;;;;;5059667;28;20070;-61
2022/06/27 09:03:21;;;;;;;4.70;3.78;;;20.50;95.20;;;;;;5062142;28;20103;-61
2022/06/27 09:05:57;;;;;;;7.70;4.40;;;20.60;95.20;;;;;;5061217;28;20025;-62
2022/06/27 09:08:47;;;;;;;6.40;3.88;;;20.60;94.90;;;;;;5075590;28;20036;-61
2022/06/27 09:11:49;;;;;;;3.88;3.47;;;20.70;94.90;;;;;;5067407;28;20108;-61
2022/06/27 09:14:39;;;;;;;4.20;3.42;;;20.80;94.80;;;;;;5066061;28;20032;-61
2022/06/27 09:17:12;;;;;;;5.38;3.30;;;20.90;94.60;;;;;;5070820;28;20102;-61
2022/06/27 09:19:44;;;;;;;4.40;3.22;;;20.90;94.50;;;;;;5070736;28;20032;-61
2022/06/27 09:22:12;;;;;;;5.07;3.78;;;21.10;94.30;;;;;;5059445;28;20021;-61
2022/06/27 09:24:58;;;;;;;6.35;3.78;;;21.20;94.20;;;;;;5056139;28;20111;-61
2022/06/27 09:27:44;;;;;;;4.80;3.40;;;21.30;93.80;;;;;;5057865;28;20350;-62
2022/06/27 09:30:22;;;;;;;4.85;3.88;;;21.40;93.70;;;;;;5057448;28;20025;-61
2022/06/27 09:33:10;;;;;;;;;;;;;;;;;;;;;
2022/06/27 09:35:38;;;;;;;5.65;3.53;;;21.40;93.20;;;;;;5067444;28;20038;-61
2022/06/27 09:38:07;;;;;;;5.28;3.70;;;21.50;93.20;;;;;;5064915;28;20030;-62
2022/06/27 09:40:34;;;;;;;6.85;4.88;;;21.60;93.10;;;;;;5062979;28;20484;-61
2022/06/27 09:43:00;;;;;;;5.57;4.00;;;21.70;92.80;;;;;;5065658;28;20028;-61
2022/06/27 09:45:28;;;;;;;4.10;3.05;;;21.80;92.70;;;;;;5064983;28;20503;-61
2022/06/27 09:48:04;;;;;;;5.65;3.30;;;21.90;92.40;;;;;;5065962;28;20055;-62
2022/06/27 09:50:33;;;;;;;6.57;5.40;;;21.90;92.10;;;;;;5060951;28;20025;-61
2022/06/27 09:52:59;;;;;;;7.75;6.03;;;21.90;91.50;;;;;;5072151;28;20503;-61
2022/06/27 09:55:25;;;;;;;8.48;6.35;;;21.80;90.90;;;;;;5066178;28;20111;-61
2022/06/27 09:57:53;;;;;;;8.23;6.40;;;21.70;90.80;;;;;;5067962;28;20032;-62
2022/06/27 10:00:20;;;;;;;5.07;3.72;;;21.70;90.40;;;;;;5070749;28;20029;-61
2022/06/27 10:02:47;;;;;;;4.00;2.60;;;21.70;90.60;;;;;;5084746;28;20028;-61
2022/06/27 10:05:18;;;;;;;4.28;2.83;;;21.90;90.50;;;;;;5066410;28;20393;-61
2022/06/27 10:08:04;;;;;;;3.72;2.70;;;22.20;90.00;;;;;;5064672;28;20112;-61
2022/06/27 10:10:31;;;;;;;5.15;3.85;;;22.40;89.40;;;;;;5057746;28;20028;-61
2022/06/27 10:12:59;;;;;;;6.50;4.63;;;22.50;88.30;;;;;;5060544;28;20049;-62
2022/06/27 10:15:27;;;;;;;8.95;6.78;;;22.50;85.90;;;;;;5060214;28;20099;-61
2022/06/27 10:17:54;;;;;;;6.90;5.63;;;22.20;84.70;;;;;;5063391;28;20058;-61
2022/06/27 10:20:26;;;;;;;4.18;3.20;;;22.00;85.20;;;;;;5069009;28;20032;-61
2022/06/27 10:23:26;;;;;;;6.32;4.68;;;22.10;85.70;;;;;;5068425;28;20031;-61
2022/06/27 10:25:53;;;;;;;5.43;3.75;;;22.20;85.30;;;;;;5056086;28;20025;-61
2022/06/27 10:28:21;;;;;;;4.15;3.03;;;22.20;85.70;;;;;;5062807;28;20024;-61
2022/06/27 10:30:56;;;;;;;3.20;2.53;;;22.40;85.60;;;;;;5057236;28;20111;-62
2022/06/27 10:33:21;;;;;;;3.20;2.15;;;22.70;85.20;;;;;;5053610;28;20025;-62
2022/06/27 10:36:11;;;;;;;4.10;2.55;;;22.90;84.80;;;;;;5055313;28;20108;-62
2022/06/27 10:38:39;;;;;;;5.90;3.08;;;23.20;84.10;;;;;;5060955;28;20109;-61
2022/06/27 10:41:25;;;;;;;5.23;3.50;;;23.40;83.80;;;;;;5058526;28;20025;-62
2022/06/27 10:43:54;;;;;;;8.00;6.50;;;23.60;83.20;;;;;;5060102;28;20263;-62
2022/06/27 10:46:19;;;;;;;7.10;4.80;;;23.60;80.70;;;;;;5066467;28;20484;-62
2022/06/27 10:49:50;;;;;;;;;;;;;;;;;;;;;
2022/06/27 10:52:34;;;;;;;5.72;4.90;;;23.50;81.30;;;;;;5063687;28;20023;-62
2022/06/27 10:55:00;;;;;;;7.70;6.32;;;23.60;81.40;;;;;;5058738;28;20013;-62
2022/06/27 10:57:39;;;;;;;8.85;6.35;;;23.40;80.70;;;;;;5063054;28;20063;-61
2022/06/27 11:00:05;;;;;;;7.45;5.82;;;23.20;79.30;;;;;;5059961;28;20017;-62
2022/06/27 11:02:33;;;;;;;6.50;4.60;;;23.10;79.80;;;;;;5063459;28;20492;-62
2022/06/27 11:04:59;;;;;;;7.25;4.63;;;23.00;79.50;;;;;;5066819;28;20079;-62
2022/06/27 11:07:26;;;;;;;5.20;3.00;;;23.10;79.20;;;;;;5062710;28;20037;-62
2022/06/27 11:09:52;;;;;;;3.90;2.40;;;23.30;79.30;;;;;;5067837;28;20025;-62
2022/06/27 11:12:37;;;;;;;6.65;4.15;;;23.60;79.70;;;;;;5066684;28;20024;-62
2022/06/27 11:15:35;;;;;;;6.82;4.78;;;23.70;78.50;;;;;;5067698;28;20028;-62
2022/06/27 11:18:07;;;;;;;4.22;3.38;;;23.60;77.50;;;;;;5062255;28;20033;-62
2022/06/27 11:20:32;;;;;;;5.65;4.13;;;23.50;77.10;;;;;;5064429;28;20025;-62
2022/06/27 11:23:01;;;;;;;5.78;4.18;;;23.40;76.30;;;;;;5069314;28;20070;-62
2022/06/27 11:25:29;;;;;;;6.78;4.40;;;23.20;76.30;;;;;;5069117;28;20094;-61
2022/06/27 11:27:57;;;;;;;8.75;4.32;;;23.00;75.90;;;;;;5065689;28;20040;-62
2022/06/27 11:33:25;;;;;;;10.35;5.63;;;22.60;77.10;;;;;;5058360;28;20031;-61
2022/06/27 11:36:13;;;;;;;;;;;;;;;;;;;;;
2022/06/27 11:38:48;;;;;;;6.10;4.60;;;22.30;79.20;;;;;;5061937;28;20031;-62
2022/06/27 11:41:16;;;;;;;5.82;4.13;;;22.30;79.40;;;;;;5067715;28;20392;-62
2022/06/27 11:43:56;;;;;;;7.10;4.53;;;22.30;79.30;;;;;;5072486;28;20418;-62
2022/06/27 11:46:28;;;;;;;6.75;4.00;;;22.30;79.10;;;;;;5064104;28;20618;-62
2022/06/27 11:49:07;;;;;;;8.15;5.00;;;22.30;79.70;;;;;;5055660;28;20025;-61
2022/06/27 11:51:33;;;;;;;6.65;4.78;;;22.20;79.50;;;;;;5055264;28;20033;-61
2022/06/27 11:54:02;;;;;;;5.72;4.32;;;22.10;79.30;;;;;;5055726;28;20071;-62
2022/06/27 11:56:29;;;;;;;6.10;3.40;;;22.20;78.30;;;;;;5056304;28;20362;-62
2022/06/27 11:58:57;;;;;;;8.32;4.03;;;22.20;78.20;;;;;;5087953;28;20408;-62
2022/06/27 12:01:24;;;;;;;4.45;3.22;;;22.30;78.30;;;;;;5055579;28;20061;-61
2022/06/27 12:04:12;;;;;;;4.45;3.08;;;22.40;78.00;;;;;;5055327;28;20112;-62
2022/06/27 12:06:46;;;;;;;7.53;3.63;;;22.60;76.80;;;;;;5068105;28;20021;-62
2022/06/27 12:09:12;;;;;;;8.63;4.07;;;22.60;76.30;;;;;;5068278;28;20056;-62
2022/06/27 12:11:47;;;;;;;5.00;3.35;;;22.50;75.80;;;;;;5074295;28;20045;-62
2022/06/27 12:14:13;;;;;;;6.80;3.63;;;22.40;75.30;;;;;;5074318;28;20027;-61
2022/06/27 12:16:50;;;;;;;5.70;3.67;;;22.30;76.40;;;;;;5074809;28;20021;-62
2022/06/27 12:19:16;;;;;;;7.15;3.38;;;22.30;77.90;;;;;;5071466;28;20017;-62
2022/06/27 12:21:43;;;;;;;5.65;4.07;;;22.20;78.90;;;;;;5054637;28;20048;-61
2022/06/27 12:24:09;;;;;;;10.30;4.72;;;22.20;79.70;;;;;;5054318;28;20082;-62
2022/06/27 12:26:35;;;;;;;7.05;4.70;;;22.00;79.00;;;;;;5054778;28;20091;-62
2022/06/27 12:29:01;;;;;;;6.90;4.30;;;21.90;79.40;;;;;;5068011;28;20025;-62
2022/06/27 12:31:26;;;;;;;5.38;3.20;;;21.90;81.30;;;;;;5074777;28;20495;-61
2022/06/27 12:33:53;;;;;;;4.50;3.22;;;21.90;81.40;;;;;;5060197;28;20025;-62
2022/06/27 12:36:18;;;;;;;4.95;3.30;;;21.90;81.30;;;;;;5054629;28;20067;-62
2022/06/27 12:38:44;;;;;;;6.10;3.25;;;21.90;81.20;;;;;;5083260;28;20021;-62
2022/06/27 12:41:12;;;;;;;4.93;2.50;;;22.00;80.00;;;;;;5072418;28;20049;-62
2022/06/27 12:43:39;;;;;;;7.80;3.83;;;22.00;79.40;;;;;;5072166;28;20570;-61
2022/06/27 12:46:05;;;;;;;3.40;2.45;;;22.00;79.00;;;;;;5071982;28;20081;-62
2022/06/27 12:48:32;;;;;;;6.10;3.38;;;22.10;79.10;;;;;;5073080;28;20059;-62
2022/06/27 12:50:57;;;;;;;3.95;2.35;;;22.20;79.00;;;;;;5072140;28;20027;-62
2022/06/27 12:53:23;;;;;;;4.93;2.70;;;22.30;79.10;;;;;;5071867;28;20021;-62
2022/06/27 12:55:49;;;;;;;3.97;2.83;;;22.50;78.80;;;;;;5073224;28;20029;-62
2022/06/27 12:58:16;;;;;;;3.75;2.78;;;22.60;78.30;;;;;;5072463;28;20056;-62
2022/06/27 13:00:41;;;;;;;4.45;2.95;;;22.70;78.10;;;;;;5072296;28;20028;-62
2022/06/27 13:03:07;;;;;;;3.50;2.72;;;22.70;77.70;;;;;;5070052;28;20093;-62